Tuesday, January 17, 2017, 3:48 AM EST

KRDG, Reading Regional Airport

Location: Reading, PA, United States Lat: 40.367
Local Time: 3:48 AM EST ( 8:48 GMT) Lon: -75.967
Time Zone: US/Eastern Elev: 344 ft

Show me the last for .
Show Decoded

2017-01-17 03:22 METAR KRDG 170822Z AUTO 00000KT 10SM OVC016 02/M03 A3024 RMK AO2 T00221033 =
2017-01-17 02:54 METAR KRDG 170754Z AUTO 00000KT 10SM OVC014 02/M03 A3025 RMK AO2 SLP251
                 T00221033 =
2017-01-17 02:41 METAR KRDG 170741Z AUTO 00000KT 10SM OVC015 02/M04 A3025 RMK AO2 T00221039 =
2017-01-17 02:04 METAR KRDG 170704Z AUTO 00000KT 10SM OVC013 02/M03 A3026 RMK AO2 T00221033 =
2017-01-17 01:54 METAR KRDG 170654Z AUTO 00000KT 10SM OVC015 02/M04 A3025 RMK AO2 SLP252
                 T00221039 =
2017-01-17 00:54 METAR KRDG 170554Z AUTO 00000KT 10SM OVC022 02/M04 A3027 RMK AO2 SLP256
                 T00221039 10028 20017 56022 =
2017-01-17 00:05 METAR KRDG 170505Z AUTO 00000KT 10SM BKN023 OVC036 02/M04 A3028 RMK AO2
                 T00221044 =
2017-01-16 23:54 METAR KRDG 170454Z AUTO 00000KT 10SM SCT023 OVC037 02/M04 A3028 RMK AO2 SLP263
                 T00221044 400501078 =
2017-01-16 23:44 METAR KRDG 170444Z AUTO 00000KT 10SM FEW025 OVC037 02/M04 A3029 RMK AO2
                 T00221044 =
2017-01-16 22:54 METAR KRDG 170354Z AUTO 00000KT 10SM OVC027 02/M04 A3031 RMK AO2 SLP272
                 T00221044 =
2017-01-16 21:54 METAR KRDG 170254Z AUTO 00000KT 10SM BKN027 BKN047 OVC085 02/M04 A3033 RMK AO2
                 SLP279 T00221044 55001 =
2017-01-16 20:54 METAR KRDG 170154Z AUTO 00000KT 10SM OVC050 03/M04 A3033 RMK AO2 SLP278
                 T00281044 =
2017-01-16 19:54 METAR KRDG 170054Z AUTO 00000KT 10SM OVC060 03/M05 A3034 RMK AO2 SLP282
                 T00281050 =
2017-01-16 18:54 METAR KRDG 162354Z AUTO 19004KT 10SM SCT031 OVC080 03/M05 A3033 RMK AO2 SLP281
                 T00281050 10050 20022 58008 =
2017-01-16 18:02 METAR KRDG 162302Z AUTO 23004KT 10SM OVC031 03/M05 A3035 RMK AO2 T00281050 =
2017-01-16 17:54 METAR KRDG 162254Z AUTO 23004KT 10SM OVC029 03/M06 A3035 RMK AO2 SLP288
                 T00281056 =
2017-01-16 16:54 METAR KRDG 162154Z AUTO 23005KT 10SM OVC023 03/M04 A3036 RMK AO2 SLP289
                 T00331044 =
2017-01-16 15:54 METAR KRDG 162054Z 21006KT 10SM OVC021 04/M05 A3036 RMK AO2 SLP290 T00391050
                 56009 =
2017-01-16 14:54 METAR KRDG 161954Z 26007KT 10SM OVC025 04/M05 A3036 RMK AO2 SLP291 T00391050 =
2017-01-16 13:54 METAR KRDG 161854Z 20007KT 10SM OVC028 04/M06 A3037 RMK AO2 SLP293 T00441061 =
2017-01-16 13:22 METAR KRDG 161822Z 22009KT 10SM BKN028 05/M06 A3038 RMK AO2 T00501061 =
2017-01-16 12:54 METAR KRDG 161754Z VRB03KT 10SM CLR 04/M06 A3039 RMK AO2 SLP299 I6000 T00441056
                 10044 21078 58030 =
2017-01-16 11:54 METAR KRDG 161654Z VRB04KT 10SM CLR 03/M06 A3043 RMK AO2 SLP314 T00281056 =
2017-01-16 10:54 METAR KRDG 161554Z 00000KT 10SM CLR 00/M06 A3046 RMK AO2 SLP324 T00001061 =
2017-01-16 09:54 METAR KRDG 161454Z 00000KT 10SM CLR M02/M06 A3048 RMK AO2 SLP329 I3000 T10221061
                 53005 =
2017-01-16 08:54 METAR KRDG 161354Z 00000KT 7SM CLR M05/M07 A3046 RMK AO2 SLP324 T10501072 =
2017-01-16 07:54 METAR KRDG 161254Z 00000KT 8SM CLR M08/M10 A3046 RMK AO2 SLP324 I1000 T10781100
                 =
2017-01-16 06:54 METAR KRDG 161154Z 00000KT 8SM CLR M08/M09 A3046 RMK AO2 SLP325 I6000 T10781094
                 11050 21078 53005 =
2017-01-16 05:54 METAR KRDG 161054Z 00000KT 9SM CLR M07/M09 A3044 RMK AO2 SLP318 I1000 T10721089
                 =
2017-01-16 04:54 METAR KRDG 160954Z 36004KT 5SM BR CLR M07/M09 A3043 RMK AO2 SLP314 I1000
                 T10721089 =
2017-01-16 03:54 METAR KRDG 160854Z 00000KT 10SM CLR M06/M09 A3044 RMK AO2 SLP318 T10611089 50004
                 =

Support USWX by starting your Amazon purchase here.